Tiempo atmosférico en la estación meteorológica de Las Cabezas de San Juan, Sevilla (105 m.)



Fecha
DESCASC
Temp. máxima en grados centígrados (hora)
DESCASC
Temp. mínima en grados centígrados (hora)
DESCASC
Temp. media en grados centígrados
DESCASC
Racha de viento máxima en m/sg (hora)
DESCASC
Velocidad máxima media en intervalos de 10 minutos(hora)
DESCASC
Precipitaciones diarias en mm
DESCASC
Precipitaciones de 00:00 a 06:00 en mm
DESCASC
Precipitaciones de 06:00 a 12:00 en mm
DESCASC
Precipitaciones de 12:00 a 18:00 en mm
DESCASC
Precipitaciones de 18:00 a 24:00 en mm
DESCASC
22-04-2018 23.3 (15:50) 13.6 (07:20) 18.4 6.67 (18:40) 4.44 (18:50) 0.6 0.4 0 0 0.2
21-04-2018 21.5 (18:40) 14.2 (06:30) 17.8 7.78 (21:30) 4.17 (11:30) 0.2 0 0 0 0.2
20-04-2018 23.2 (16:00) 13.7 (04:50) 18.5 12.5 (16:10) 8.33 (15:30) 0 0 0 0 0
19-04-2018 26.8 (15:00) 10.2 (00:00) 18.5 10.56 (17:30) 6.67 (18:10) 0 0 0 0 0
18-04-2018 26.7 (15:30) 10.7 (00:00) 18.7 8.61 (22:10) 5.83 (22:10) 0 0 0 0 0
17-04-2018 24.8 (19:00) 8.7 (00:00) 16.7 4.17 (23:00) 3.33 (23:00) 0 0 0 0 0
16-04-2018 19.2 (18:20) 7.8 (00:00) 13.5 9.17 (00:50) 5.28 (00:30) 1.8 1.8 0 0 0
15-04-2018 17.7 (14:40) 9.5 (00:00) 13.6 6.39 (23:40) 4.72 (23:30) 0 0 0 0 0
14-04-2018 19.2 (16:10) 5.6 (00:00) 12.4 7.22 (16:20) 3.61 (16:40) 0 0 0 0 0
13-04-2018 -- (--) -- (--) -- -- (--) -- (--) -- -- 13.8 4.4 0
12-04-2018 15.1 (13:00) 9.4 (00:00) 12.3 20.28 (16:10) 8.89 (15:10) 15.2 0 0 12.2 3
11-04-2018 16.2 (18:20) 7.7 (00:00) 12 11.39 (16:20) 6.94 (14:40) 0 0 0 0 0
10-04-2018 13.6 (19:40) 7.8 (00:00) 10.7 16.39 (14:50) 8.33 (20:00) 28.8 0 0.2 28.4 0.2
09-04-2018 16.1 (17:50) 6.7 (00:00) 11.4 8.89 (15:30) 5.28 (15:30) 0.6 0.6 0 0 0
08-04-2018 17.3 (16:20) 8.2 (00:00) 12.7 11.11 (23:10) 5.28 (15:00) 5.8 2.4 0.2 0 3.2
07-04-2018 16.5 (16:20) 9.7 (00:00) 13.1 10.83 (16:40) 5.83 (17:20) 15 7.6 1.2 0.2 6
06-04-2018 22 (15:00) 11.1 (00:00) 16.6 13.61 (16:10) 9.72 (16:30) 0 0 0 0 0
05-04-2018 25.3 (16:50) 9.1 (00:00) 17.2 8.89 (22:20) 5.83 (21:50) 0 0 0 0 0
04-04-2018 20 (16:00) 11 (00:00) 15.5 7.78 (16:20) 4.17 (16:20) 0 0 0 0 0
03-04-2018 19.9 (14:10) 13 (00:00) 16.4 8.61 (15:40) 4.17 (12:10) 0 0 0 0 0
02-04-2018 20.2 (14:50) 8.1 (00:00) 14.2 10.28 (03:00) 6.39 (03:00) 0 0 0 0 0
01-04-2018 22.8 (16:30) 7.1 (00:00) 14.9 8.89 (21:30) 6.11 (21:30) 0 0 0 0 0
31-03-2018 17.9 (17:30) 7.1 (00:00) 12.5 6.67 (01:10) 3.33 (15:30) 0.8 0.8 0 0 0
30-03-2018 15.4 (16:00) 8.3 (00:00) 11.8 11.39 (16:40) 5.83 (13:50) 8.2 0 8.2 0 0
29-03-2018 -- (--) -- (--) -- -- (--) -- (--) -- -- 0 0 0
28-03-2018 24.3 (18:00) 9.1 (00:00) 16.7 6.39 (19:20) 3.33 (19:00) 0 0 0 0 0
27-03-2018 23.2 (17:40) 7.4 (00:00) 15.3 5.83 (16:10) 3.89 (02:10) 0 0 0 0 0
26-03-2018 -- (--) -- (--) -- -- (--) -- (--) -- 0 0 0 --
25-03-2018 16.2 (15:00) 8.6 (00:00) 12.4 12.5 (11:40) 8.33 (11:40) 11.4 1.8 5.4 4.2 0
24-03-2018 15.1 (15:00) 7.5 (00:00) 11.3 13.06 (03:50) 8.06 (16:00) 3.6 3.6 0 0 0

Gráficas

Temp. máximas Temp. mínimas Temp. medias Precipitaciones Rachas de viento máximas Velocidades máximas media en intervalos de 10 minutos

Datos horarios

Fecha y hora oficial Temperatura (ºC) Velocidad del viento (km/h) Dirección del viento Racha (km/h) Dirección de racha Precipitación (mm) Presión (hPa) Tendencia (hPa) Humedad (%)
2018-04-22 23:00:00 17 5 Sur 12 Sudoeste 0.2 -- -- 89
2018-04-22 22:00:00 17.7 2 Oeste 10 Sudoeste 0 -- -- 86
2018-04-22 21:00:00 18.3 2 Oeste 15 Oeste 0 -- -- 81
2018-04-22 20:00:00 18.9 8 Oeste 21 Noroeste 0 -- -- 77
2018-04-22 19:00:00 20.2 15 Oeste 24 Noroeste 0 -- -- 73
2018-04-22 18:00:00 21.5 14 Noroeste 22 Noroeste 0 -- -- 68
2018-04-22 17:00:00 22.9 7 Noroeste 15 Norte 0 -- -- 60
2018-04-22 16:00:00 22.8 8 Norte 16 Noroeste 0 -- -- 59
2018-04-22 15:00:00 22.4 5 Norte 15 Noroeste 0 -- -- 62
2018-04-22 14:00:00 21.5 9 Norte 15 Noroeste 0 -- -- 68
2018-04-22 13:00:00 20.6 8 Noroeste 14 Noroeste 0 -- -- 67
2018-04-22 12:00:00 20.1 5 Sudoeste 16 Sur 0 -- -- 68
2018-04-22 11:00:00 18 6 Noroeste 12 Noroeste 0 -- -- 81
2018-04-22 10:00:00 16.9 4 Sudoeste 10 Sudoeste 0 -- -- 89
2018-04-22 09:00:00 14.6 2 Sudoeste 6 Sur 0 -- -- 96
2018-04-22 08:00:00 14.2 4 Sur 8 Sudeste 0 -- -- 96
2018-04-22 07:00:00 13.9 4 Sudeste 9 Sur 0 -- -- 96
2018-04-22 06:00:00 14.3 3 Sudeste 10 Sur 0 -- -- 96
2018-04-22 05:00:00 14.5 4 Sudeste 9 Sur 0 -- -- 96
2018-04-22 04:00:00 14.9 4 Sur 11 Sudeste 0 -- -- 96
2018-04-22 03:00:00 15.1 4 Sudoeste 18 Sudeste 0.2 -- -- 95
2018-04-22 02:00:00 15.4 8 Sudeste 14 Sur 0 -- -- 95
2018-04-22 01:00:00 15.6 5 Sur 17 Sur 0.2 -- -- 95
2018-04-22 00:00:00 15.7 3 Sudoeste 14 Oeste 0.2 -- -- 95
2018-04-21 23:00:00 16 6 Oeste 14 Oeste 0 -- -- 93
2018-04-21 22:00:00 16.6 6 Oeste 28 Oeste 0 -- -- 90
2018-04-21 21:00:00 18.8 6 Oeste 15 Sur 0 -- -- 79
2018-04-21 20:00:00 20 6 Sudoeste 14 Sudoeste 0 -- -- 76
2018-04-21 19:00:00 21 8 Oeste 16 Norte 0 -- -- 64
2018-04-21 18:00:00 21.1 11 Norte 21 Nordeste 0 -- -- 63
2018-04-21 17:00:00 20.7 10 Norte 24 Nordeste 0 -- -- 65
2018-04-21 16:00:00 20 9 Norte 19 Norte 0 -- -- 66
2018-04-21 15:00:00 20.7 6 Nordeste 15 Norte 0 -- -- 60
2018-04-21 14:00:00 19.8 9 Noroeste 17 Noroeste 0 -- -- 63
2018-04-21 13:00:00 19.1 12 Noroeste 22 Noroeste 0 -- -- 70
2018-04-21 12:00:00 18.5 6 Oeste 23 Noroeste 0 -- -- 70
2018-04-21 11:00:00 17.3 13 Noroeste 20 Noroeste 0 -- -- 78
2018-04-21 10:00:00 16.1 5 Noroeste 11 Sudeste 0 -- -- 84
2018-04-21 09:00:00 15.4 9 Sudeste 19 Este 0 -- -- 82
2018-04-21 08:00:00 14.4 5 Este 28 Este 0 -- -- 92
2018-04-21 07:00:00 14.3 5 Este 15 Nordeste 0 -- -- 94
2018-04-21 06:00:00 14.4 6 Norte 21 Noroeste 0 -- -- 93
2018-04-21 05:00:00 15 9 Noroeste 15 Noroeste 0 -- -- 86
2018-04-21 04:00:00 14.5 3 Noroeste 8 Noroeste 0 -- -- 85
2018-04-21 03:00:00 14.8 3 Oeste 21 Oeste 0 -- -- 82
2018-04-21 02:00:00 15.3 5 Sudoeste 16 Sur 0 -- -- 78
2018-04-21 01:00:00 15.9 3 Este 13 Nordeste 0 -- -- 76
2018-04-21 00:00:00 15.5 5 Nordeste 28 Sur 0 -- -- 76
2018-04-20 23:00:00 16.6 22 Sudeste 37 Sudeste 0 -- -- 70
2018-04-20 22:00:00 17.1 20 Sudeste 29 Sudeste 0 -- -- 67
2018-04-20 21:00:00 18 17 Sudeste 25 Sudeste 0 -- -- 64
2018-04-20 20:00:00 19.2 13 Sur 29 Sur 0 -- -- 62
2018-04-20 19:00:00 20.7 20 Sur 34 Sudeste 0 -- -- 56
2018-04-20 18:00:00 21.8 24 Sudeste 40 Sudeste 0 -- -- 50
2018-04-20 17:00:00 22.1 27 Sudeste 45 Sur 0 -- -- 50
2018-04-20 16:00:00 23.2 22 Sudeste 41 Sudeste 0 -- -- 49
2018-04-20 15:00:00 23.1 22 Sudeste 43 Sudeste 0 -- -- 48
2018-04-20 14:00:00 22.9 22 Sudeste 34 Sudeste 0 -- -- 50
2018-04-20 13:00:00 22.1 16 Sudeste 31 Sudeste 0 -- -- 52
2018-04-20 12:00:00 21.6 17 Sudeste 30 Sudeste 0 -- -- 52
2018-04-20 11:00:00 20.1 17 Sudeste 36 Sudeste 0 -- -- 59
2018-04-20 10:00:00 18.5 18 Sudeste 34 Sudeste 0 -- -- 61
2018-04-20 09:00:00 16.5 18 Sudeste 26 Este 0 -- -- 65
2018-04-20 08:00:00 15.6 17 Sudeste 37 Sudeste 0 -- -- 68
2018-04-20 07:00:00 15.1 18 Sudeste 28 Sudeste 0 -- -- 70
2018-04-20 06:00:00 15 6 Sudeste 18 Sudeste 0 -- -- 67
2018-04-20 05:00:00 13.8 6 Sudeste 16 Sudeste 0 -- -- 73
2018-04-20 04:00:00 16.2 13 Sudeste 24 Sudeste 0 -- -- 62
2018-04-20 03:00:00 17.3 13 Sudeste 37 Sudeste 0 -- -- 58
2018-04-20 02:00:00 18 24 Sudeste 38 Sudeste 0 -- -- 55
2018-04-20 01:00:00 18.1 16 Sudeste 32 Sudeste 0 -- -- 54
2018-04-20 00:00:00 18.4 19 Sudeste 35 Sudeste 0 -- -- 53
2018-04-19 23:00:00 19 22 Sudeste 36 Sur 0 -- -- 50
2018-04-19 22:00:00 19.5 22 Sudeste 34 Sudeste 0 -- -- 49
2018-04-19 21:00:00 20.6 19 Sudeste 31 Sudeste 0 -- -- 46
2018-04-19 20:00:00 22.5 18 Sudeste 34 Sudeste 0 -- -- 42
2018-04-19 19:00:00 24.1 22 Sudeste 35 Sur 0 -- -- 38
2018-04-19 18:00:00 25.6 23 Sudeste 38 Sudeste 0 -- -- 33
2018-04-19 17:00:00 26.3 21 Sudeste 33 Sudeste 0 -- -- 34
2018-04-19 16:00:00 26.7 16 Sudeste 31 Sudeste 0 -- -- 33
2018-04-19 15:00:00 26.8 7 Sudeste 23 Sudeste 0 -- -- 34
2018-04-19 14:00:00 25.7 6 Este 16 Este 0 -- -- 38
2018-04-19 13:00:00 24.4 6 Este 13 Norte 0 -- -- 43
2018-04-19 12:00:00 22 4 Nordeste 8 Noroeste 0 -- -- 46
2018-04-19 11:00:00 19.4 3 Norte 7 Noroeste 0 -- -- 53
2018-04-19 10:00:00 17.8 4 Noroeste 7 Noroeste 0 -- -- 62
2018-04-19 09:00:00 13.2 3 Este 9 Este 0 -- -- 85
2018-04-19 08:00:00 10.4 5 Este 10 Este 0 -- -- 87
2018-04-19 07:00:00 11.6 8 Este 10 Este 0 -- -- 81
2018-04-19 06:00:00 10.6 7 Este 10 Este 0 -- -- 87
2018-04-19 05:00:00 10.5 3 Sudeste 5 Este 0 -- -- 85
2018-04-19 04:00:00 11.5 0 Calma 8 Este 0 -- -- 80
2018-04-19 03:00:00 12.2 6 Este 8 Este 0 -- -- 73
2018-04-19 02:00:00 13.2 3 Este 10 Sur 0 -- -- 71
2018-04-19 01:00:00 16.1 8 Sudeste 22 Sudeste 0 -- -- 53
2018-04-19 00:00:00 17.8 16 Sudeste 24 Sudeste 0 -- -- 46
2018-04-18 23:00:00 18.2 18 Sudeste 31 Sudeste 0 -- -- 46
2018-04-18 22:00:00 19.1 20 Sudeste 30 Sudeste 0 -- -- 45
2018-04-18 21:00:00 21 16 Sudeste 23 Sudeste 0 -- -- 43
2018-04-18 20:00:00 24.1 8 Sudoeste 18 Sur 0 -- -- 44
2018-04-18 19:00:00 25.8 10 Sur 21 Sur 0 -- -- 43
2018-04-18 18:00:00 26.3 12 Sur 22 Sur 0 -- -- 40
2018-04-18 17:00:00 26.4 14 Sur 22 Sur 0 -- -- 40
2018-04-18 16:00:00 26.5 12 Sur 23 Sudoeste 0 -- -- 40
2018-04-18 15:00:00 26.5 12 Sur 21 Sur 0 -- -- 40
2018-04-18 14:00:00 25.1 4 Norte 15 Oeste 0 -- -- 42
2018-04-18 13:00:00 24.3 4 Este 12 Sudeste 0 -- -- 45
2018-04-18 12:00:00 21.8 3 Norte 11 Nordeste 0 -- -- 45
2018-04-18 11:00:00 19.9 4 Nordeste 10 Este 0 -- -- 55
2018-04-18 10:00:00 17.4 6 Sudeste 12 Sudeste 0 -- -- 66
2018-04-18 09:00:00 13.4 4 Este 12 Este 0 -- -- 78
2018-04-18 08:00:00 11.6 8 Este 12 Este 0 -- -- 85
2018-04-18 07:00:00 10.9 9 Este 10 Este 0 -- -- 81
2018-04-18 06:00:00 11.8 7 Este 11 Este 0 -- -- 77
2018-04-18 05:00:00 12.4 6 Este 10 Nordeste 0 -- -- 80
2018-04-18 04:00:00 13 3 Norte 18 Sur 0 -- -- 72
2018-04-18 03:00:00 15.2 12 Sudeste 21 Sudeste 0 -- -- 60
2018-04-18 02:00:00 15.3 17 Sudeste 22 Sudeste 0 -- -- 61
2018-04-18 01:00:00 16 11 Sur 18 Sur 0 -- -- 66
2018-04-18 00:00:00 16.7 10 Sudeste 15 Sudeste 0 -- -- 67
2018-04-17 23:00:00 17.7 12 Sudeste 15 Sudeste 0 -- -- 69
2018-04-17 22:00:00 17.6 4 Este 5 Este 0 -- -- 77
2018-04-17 21:00:00 21.3 3 Sudoeste 4 Sudoeste 0 -- -- 63
2018-04-17 20:00:00 24.4 3 Oeste 10 Norte 0 -- -- 47
2018-04-17 19:00:00 24.8 4 Norte 10 Norte 0 -- -- 44
2018-04-17 18:00:00 24.6 4 Sur 14 Norte 0 -- -- 44
2018-04-17 17:00:00 24 6 Norte 14 Norte 0 -- -- 46
2018-04-17 16:00:00 23 7 Noroeste 14 Noroeste 0 -- -- 47
2018-04-17 15:00:00 22.3 5 Noroeste 13 Noroeste 0 -- -- 49
2018-04-17 14:00:00 21 4 Oeste 14 Noroeste 0 -- -- 49
2018-04-17 13:00:00 19.3 4 Noroeste 11 Noroeste 0 -- -- 62
2018-04-17 12:00:00 17.2 5 Norte 11 Noroeste 0 -- -- 74
2018-04-17 11:00:00 15.1 4 Nordeste 12 Nordeste 0 -- -- 80
2018-04-17 10:00:00 12.5 6 Norte 11 Norte 0 -- -- 88
2018-04-17 09:00:00 10.3 4 Nordeste 11 Este 0 -- -- 94
2018-04-17 08:00:00 8.8 3 Este 8 Este 0 -- -- 93
2018-04-17 07:00:00 9.1 4 Este 11 Nordeste 0 -- -- 93
2018-04-17 06:00:00 9.4 4 Este 10 Nordeste 0 -- -- 94
2018-04-17 05:00:00 9.8 5 Este 10 Este 0 -- -- 96
2018-04-17 04:00:00 10.2 6 Este 9 Este 0 -- -- 96
2018-04-17 03:00:00 10 5 Este 8 Este 0 -- -- 96
2018-04-17 02:00:00 9.9 0 Calma 4 Norte 0 -- -- 94
2018-04-17 01:00:00 10.7 0 Calma 2 Noroeste 0 -- -- 93
2018-04-17 00:00:00 11.7 2 Sudoeste 5 Sudoeste 0 -- -- 90
2018-04-16 23:00:00 12.6 0 Calma 9 Sudoeste 0 -- -- 84
2018-04-16 22:00:00 13.6 3 Sudoeste 8 Oeste 0 -- -- 81
2018-04-16 21:00:00 15.4 4 Oeste 18 Oeste 0 -- -- 74
2018-04-16 20:00:00 18.3 8 Oeste 13 Oeste 0 -- -- 62
2018-04-16 19:00:00 19.1 6 Noroeste 13 Noroeste 0 -- -- 54
2018-04-16 18:00:00 19.1 5 Norte 17 Noroeste 0 -- -- 54
2018-04-16 17:00:00 18.6 6 Norte 17 Noroeste 0 -- -- 59
2018-04-16 16:00:00 17.8 7 Noroeste 18 Noroeste 0 -- -- 55
2018-04-16 15:00:00 17.1 8 Oeste 15 Noroeste 0 -- -- 64
2018-04-16 14:00:00 16.2 6 Noroeste 19 Norte 0 -- -- 68
2018-04-16 13:00:00 15.4 7 Noroeste 15 Noroeste 0 -- -- 69
2018-04-16 12:00:00 13.9 5 Norte 10 Norte 0 -- -- 77
2018-04-16 11:00:00 11.7 0 Calma 5 Sudoeste 0 -- -- 99
2018-04-16 10:00:00 10.6 3 Sudeste 5 Sudeste 0 -- -- 99
2018-04-16 09:00:00 9.6 2 Noroeste 6 Oeste 0 -- -- 99
2018-04-16 08:00:00 8.8 3 Oeste 5 Oeste 0 -- -- 99
2018-04-16 07:00:00 8.7 2 Sudoeste 5 Oeste 0 -- -- 97
2018-04-16 06:00:00 9.4 3 Sudoeste 5 Sudoeste 0 -- -- 98
2018-04-16 05:00:00 10.3 3 Sudoeste 6 Sudoeste 0 -- -- 98
2018-04-16 04:00:00 10.9 3 Sudoeste 13 Oeste 0 -- -- 98
2018-04-16 03:00:00 11.6 3 Sudoeste 9 Noroeste 0 -- -- 98
2018-04-16 02:00:00 11.7 7 Noroeste 27 Noroeste 0.8 -- -- 98
2018-04-16 01:00:00 12.3 17 Noroeste 33 Oeste 1 -- -- 96
2018-04-16 00:00:00 14 12 Sur 23 Sur 0 -- -- 96
2018-04-15 23:00:00 14 14 Sur 21 Sur 0 -- -- 96
2018-04-15 22:00:00 14.1 8 Sur 19 Sudoeste 0 -- -- 94
2018-04-15 21:00:00 15 7 Sudoeste 17 Sudoeste 0 -- -- 87
2018-04-15 20:00:00 15.8 5 Sudoeste 18 Sudoeste 0 -- -- 82
2018-04-15 19:00:00 16.3 8 Sudoeste 19 Sudoeste 0 -- -- 79
2018-04-15 18:00:00 16.9 6 Sudoeste 19 Sudoeste 0 -- -- 77
2018-04-15 17:00:00 17.3 8 Sudoeste 21 Sudoeste 0 -- -- 73
2018-04-15 16:00:00 16.4 4 Oeste 17 Sudoeste 0 -- -- 76
2018-04-15 15:00:00 17.5 5 Sudoeste 18 Sur 0 -- -- 68
2018-04-15 14:00:00 16.9 9 Sudoeste 19 Sudoeste 0 -- -- 73
2018-04-15 13:00:00 15.8 4 Oeste 22 Sudoeste 0 -- -- 78
2018-04-15 12:00:00 16.1 5 Oeste 19 Sudoeste 0 -- -- 75
2018-04-15 11:00:00 15 7 Oeste 17 Noroeste 0 -- -- 81
2018-04-15 10:00:00 13 8 Sur 13 Sur 0 -- -- 91
2018-04-15 09:00:00 10.6 8 Sur 13 Sur 0 -- -- 97
2018-04-15 08:00:00 9.7 5 Sur 10 Sur 0 -- -- 96
2018-04-15 07:00:00 9.6 4 Sur 8 Sur 0 -- -- 96
2018-04-15 06:00:00 10.1 6 Sudoeste 15 Sudoeste 0 -- -- 96
2018-04-15 05:00:00 10.9 10 Sur 19 Sur 0 -- -- 95
2018-04-15 04:00:00 11.4 10 Sur 17 Sur 0 -- -- 94
2018-04-15 03:00:00 11.5 12 Sur 18 Sur 0 -- -- 94
2018-04-15 02:00:00 11.7 13 Sur 18 Sur 0 -- -- 93
2018-04-15 01:00:00 11.7 11 Sur 18 Sur 0 -- -- 92
2018-04-15 00:00:00 12 11 Sur 18 Sur 0 -- -- 90
2018-04-14 23:00:00 12.2 10 Sur 13 Sur 0 -- -- 88
2018-04-14 22:00:00 13.1 5 Sudoeste 13 Sudoeste 0 -- -- 86
2018-04-14 21:00:00 14.7 4 Sudoeste 15 Sudoeste 0 -- -- 76
2018-04-14 20:00:00 17.1 5 Oeste 23 Oeste 0 -- -- 65
2018-04-14 19:00:00 18.4 7 Oeste 22 Oeste 0 -- -- 58
2018-04-14 18:00:00 18.8 10 Oeste 26 Oeste 0 -- -- 59
2018-04-14 17:00:00 19 12 Oeste 26 Oeste 0 -- -- 54
2018-04-14 16:00:00 19.1 11 Oeste 24 Oeste 0 -- -- 54
2018-04-14 15:00:00 18.5 10 Noroeste 21 Noroeste 0 -- -- 54
2018-04-14 14:00:00 18 7 Oeste 19 Noroeste 0 -- -- 59
2018-04-14 13:00:00 17.1 6 Noroeste 13 Noroeste 0 -- -- 65
2018-04-14 12:00:00 16.3 2 Sur 10 Nordeste 0 -- -- 71
2018-04-14 11:00:00 13.3 4 Norte 8 Norte 0 -- -- 85
2018-04-14 10:00:00 11.1 0 Calma 5 Sudeste 0 -- -- 99
2018-04-14 09:00:00 7.9 3 Este 5 Este 0 -- -- 99
2018-04-14 08:00:00 6.3 3 Sudeste 5 Este 0 -- -- 98
2018-04-14 07:00:00 5.8 3 Sudeste 6 Este 0 -- -- 98
2018-04-14 06:00:00 5.9 3 Sudeste 4 Sudeste 0 -- -- 98
2018-04-14 05:00:00 6 4 Sudeste 5 Sudoeste 0 -- -- 98
2018-04-14 04:00:00 6.3 3 Sudeste 6 Sudeste 0 -- -- 97
2018-04-14 03:00:00 6.7 3 Sudeste 5 Sudeste 0 -- -- 97
2018-04-14 02:00:00 7.1 0 Calma 4 Sudeste 0 -- -- 96
2018-04-14 01:00:00 8.1 0 Calma 4 Nordeste 0 -- -- 95
2018-04-14 00:00:00 9 3 Este 8 Este 0 -- -- 92
2018-04-13 23:00:00 10 4 Nordeste 9 Norte 0 -- -- 91
2018-04-13 22:00:00 10.8 5 Norte 14 Norte 0 -- -- 90
2018-04-13 21:00:00 12.6 8 Nordeste 21 Norte 0 -- -- 83
2018-04-13 20:00:00 14.6 14 Norte 25 Norte 0 -- -- 74
2018-04-13 19:00:00 14.8 14 Norte 28 Norte 0 -- -- 78
2018-04-13 18:00:00 15.2 13 Nordeste 23 Nordeste 0 -- -- 81
2018-04-13 17:00:00 13.4 12 Nordeste 28 Nordeste 0 -- -- 88
2018-04-13 16:00:00 11.7 15 Nordeste 31 Nordeste 2.2 -- -- 96
2018-04-13 15:00:00 11.2 15 Nordeste 29 Nordeste 1.2 -- -- 94
2018-04-13 14:00:00 11 14 Nordeste 32 Este 0.8 -- -- 92
2018-04-13 13:00:00 10.8 16 Sudeste 38 Este 0.2 -- -- 94
2018-04-13 12:00:00 10 24 Sudeste 42 Sudeste 2.4 -- -- 94
2018-04-13 11:00:00 9.5 26 Sudeste 43 Sudeste 1.8 -- -- 93
2018-04-13 10:00:00 9 20 Sudeste 37 Sudeste 1 -- -- 93
2018-04-13 09:00:00 9 15 Sur 39 Sur 2.4 -- -- 94
2018-04-13 08:00:00 9 11 Sudeste 20 Sudeste 1.6 -- -- 94
2018-04-13 07:00:00 8.7 7 Sudeste 20 Sur 4.6 -- -- 94
2018-04-13 06:00:00 8.9 9 Sur 21 Sur 0 -- -- 92
2018-04-13 05:00:00 9.1 11 Sur 18 Sur 0 -- -- 92
2018-04-13 04:00:00 9.4 8 Sur 17 Sur 0 -- -- 89
2018-04-13 03:00:00 9.3 10 Sur -- -- -- -- -- 91
2018-04-13 02:00:00 9.9 5 Sudoeste 15 Sudoeste 0 -- -- 88
2018-04-13 01:00:00 10.3 6 Sudoeste 15 Sudoeste 0 -- -- 90
2018-04-13 00:00:00 10 5 Sudoeste 14 Sudoeste 0 -- -- 90
2018-04-12 23:00:00 10 8 Sur 13 Sur 0 -- -- 91
2018-04-12 22:00:00 10.9 5 Sudoeste 17 Oeste 0 -- -- 89
2018-04-12 21:00:00 11.7 6 Sudoeste 20 Sudoeste 0 -- -- 89
2018-04-12 20:00:00 12.1 9 Sudoeste 28 Sur 2.8 -- -- 95
2018-04-12 19:00:00 11.5 17 Sur 31 Sur 0.2 -- -- 94
2018-04-12 18:00:00 10.7 15 Sur 27 Sur 1 -- -- 97
2018-04-12 17:00:00 10.8 4 Sudoeste 73 Oeste 6.4 -- -- 97
2018-04-12 16:00:00 12.9 28 Sur 56 Sur 3.8 -- -- 94
2018-04-12 15:00:00 13.4 30 Sur 54 Sur 0.8 -- -- 89
2018-04-12 14:00:00 14 17 Sur 40 Sur 0.2 -- -- 82
2018-04-12 13:00:00 15.1 21 Sur 36 Sur 0 -- -- 77
2018-04-12 12:00:00 12.6 10 Sur 22 Sur 0 -- -- 93
2018-04-12 11:00:00 11.7 11 Sur 20 Sur 0 -- -- 92
2018-04-12 10:00:00 11.8 6 Sur 15 Sur 0 -- -- 91
2018-04-12 09:00:00 10.2 9 Sur 12 Sur 0 -- -- 94
2018-04-12 08:00:00 9.5 5 Sur 8 Sur 0 -- -- 93
2018-04-12 07:00:00 9.5 6 Sur 9 Sur 0 -- -- 92
2018-04-12 06:00:00 9.9 5 Sur 8 Sudoeste 0 -- -- 90
2018-04-12 05:00:00 10 4 Sudoeste 8 Sudoeste 0 -- -- 88
2018-04-12 04:00:00 10 4 Sudoeste 18 Oeste 0 -- -- 85
2018-04-12 03:00:00 9.9 7 Oeste 19 Oeste 0 -- -- 84
2018-04-12 02:00:00 9.9 9 Oeste 19 Oeste 0 -- -- 82
2018-04-12 01:00:00 10.1 12 Oeste 21 Oeste 0 -- -- 80
2018-04-12 00:00:00 11.1 9 Oeste 20 Oeste 0 -- -- 77
2018-04-11 23:00:00 11.3 4 Sudoeste 14 Oeste 0 -- -- 85
2018-04-11 22:00:00 12 3 Sudoeste 14 Oeste 0 -- -- 81
2018-04-11 21:00:00 12.9 5 Oeste 19 Oeste 0 -- -- 75
2018-04-11 20:00:00 14.1 6 Sudoeste 30 Noroeste 0 -- -- 70
2018-04-11 19:00:00 15.2 9 Oeste 31 Oeste 0 -- -- 62
2018-04-11 18:00:00 15.9 11 Oeste 32 Oeste 0 -- -- 58
2018-04-11 17:00:00 15.5 16 Oeste 41 Oeste 0 -- -- 58
2018-04-11 16:00:00 16 14 Oeste 38 Noroeste 0 -- -- 58
2018-04-11 15:00:00 15 16 Oeste 36 Noroeste 0 -- -- 63
2018-04-11 14:00:00 13.8 18 Noroeste 35 Oeste 0 -- -- 62
2018-04-11 13:00:00 12.8 18 Oeste 30 Noroeste 0 -- -- 67
2018-04-11 12:00:00 11.5 16 Noroeste 27 Oeste 0 -- -- 71
2018-04-11 11:00:00 10.3 14 Oeste 33 Noroeste 0 -- -- 78
2018-04-11 10:00:00 9.5 19 Noroeste 30 Oeste 0 -- -- 81
2018-04-11 09:00:00 8.4 17 Oeste 29 Oeste 0 -- -- 85
2018-04-11 08:00:00 7.9 10 Oeste 29 Noroeste 0 -- -- 86
2018-04-11 07:00:00 8.6 16 Oeste 28 Oeste 0 -- -- 84
2018-04-11 06:00:00 8.8 13 Oeste 29 Noroeste 0 -- -- 82
2018-04-11 05:00:00 9 10 Oeste 30 Oeste 0 -- -- 83
2018-04-11 04:00:00 9.1 8 Oeste 23 Oeste 0 -- -- 84
2018-04-11 03:00:00 9.6 14 Oeste 37 Noroeste 0 -- -- 78
2018-04-11 02:00:00 9.4 6 Oeste 15 Sudoeste 0 -- -- 85
2018-04-11 01:00:00 9.6 8 Oeste 33 Oeste 0 -- -- 81
2018-04-11 00:00:00 10 15 Oeste 30 Oeste 0 -- -- 76
2018-04-10 23:00:00 10.4 19 Oeste 38 Noroeste 0 -- -- 78
2018-04-10 22:00:00 10.9 11 Oeste 38 Oeste 0 -- -- 80
2018-04-10 21:00:00 11.6 16 Oeste 46 Oeste 0 -- -- 79
2018-04-10 20:00:00 13 30 Noroeste 45 Noroeste 0 -- -- 81
2018-04-10 19:00:00 13.3 16 Oeste 37 Sudoeste 0.2 -- -- 95
2018-04-10 18:00:00 12.5 7 Sudoeste 46 Oeste 3.4 -- -- 97
2018-04-10 17:00:00 13 22 Oeste 43 Noroeste 5.6 -- -- 97
2018-04-10 16:00:00 12.8 9 Oeste 55 Sudoeste 12.2 -- -- 96
2018-04-10 15:00:00 12.8 26 Sudoeste 59 Sudoeste 2.8 -- -- 95
2018-04-10 14:00:00 12.4 20 Sudoeste 53 Sudoeste 2.4 -- -- 95
2018-04-10 13:00:00 12.1 17 Sudoeste 46 Sudoeste 2 -- -- 94
2018-04-10 12:00:00 11.7 24 Sur 41 Sudoeste 0.2 -- -- 87
2018-04-10 11:00:00 12.4 16 Sudoeste 34 Sudoeste 0 -- -- 81
2018-04-10 10:00:00 11.1 14 Sur 26 Sudoeste 0 -- -- 89
2018-04-10 09:00:00 9.7 14 Sur 23 Sur 0 -- -- 92
2018-04-10 08:00:00 8.8 10 Sur 15 Sur 0 -- -- 93
2018-04-10 07:00:00 8.1 4 Sur 10 Sur 0 -- -- 93
2018-04-10 06:00:00 8 6 Sur 8 Sur 0 -- -- 93
2018-04-10 05:00:00 8.6 5 Sudoeste 7 Sudoeste 0 -- -- 92
2018-04-10 04:00:00 9.1 5 Sur 8 Sudoeste 0 -- -- 91
2018-04-10 03:00:00 9.2 5 Sudoeste 9 Sur 0 -- -- 89
2018-04-10 02:00:00 9.7 4 Sudoeste 7 Sur 0 -- -- 87
2018-04-10 01:00:00 9.3 5 Sudoeste 8 Sudoeste 0 -- -- 86
2018-04-10 00:00:00 9.5 5 Sur 8 Sudoeste 0 -- -- 84
2018-04-09 23:00:00 9.9 3 Sur 6 Sur 0 -- -- 83
2018-04-09 22:00:00 10.9 3 Sudoeste 8 Sudoeste 0 -- -- 79
2018-04-09 21:00:00 12.4 0 Calma 13 Oeste 0 -- -- 71
2018-04-09 20:00:00 14.7 4 Oeste 19 Oeste 0 -- -- 57
2018-04-09 19:00:00 15.3 6 Sudoeste 24 Sudoeste 0 -- -- 55
2018-04-09 18:00:00 15.6 10 Oeste 28 Noroeste 0 -- -- 53
2018-04-09 17:00:00 15.6 10 Oeste 27 Oeste 0 -- -- 60
2018-04-09 16:00:00 15.1 14 Oeste 32 Noroeste 0 -- -- 54
2018-04-09 15:00:00 14.6 17 Oeste 31 Oeste 0 -- -- 56
2018-04-09 14:00:00 14 11 Oeste 23 Oeste 0 -- -- 56
2018-04-09 13:00:00 12.9 9 Oeste 19 Noroeste 0 -- -- 66
2018-04-09 12:00:00 12.4 9 Sudoeste 19 Sudoeste 0 -- -- 68
2018-04-09 11:00:00 10 5 Oeste 13 Noroeste 0 -- -- 75
2018-04-09 10:00:00 8.6 5 Oeste 14 Noroeste 0 -- -- 80
2018-04-09 09:00:00 6.8 2 Sudoeste 10 Oeste 0 -- -- 90
2018-04-09 08:00:00 7 6 Oeste 14 Oeste 0 -- -- 88
2018-04-09 07:00:00 7.5 5 Oeste 14 Oeste 0 -- -- 91
2018-04-09 06:00:00 8 5 Oeste 15 Oeste 0.2 -- -- 89
2018-04-09 05:00:00 7.8 4 Sudoeste 17 Noroeste 0.2 -- -- 89
2018-04-09 04:00:00 8.5 4 Oeste 23 Oeste 0 -- -- 89
2018-04-09 03:00:00 9.1 7 Oeste 17 Oeste 0.2 -- -- 93
2018-04-09 02:00:00 9.4 5 Sudoeste 9 Sur 0 -- -- 96
2018-04-09 01:00:00 9.4 4 Sudoeste 9 Oeste 0 -- -- 96
2018-04-09 00:00:00 9.6 4 Sudoeste 40 Noroeste 2.4 -- -- 94
2018-04-08 23:00:00 12.4 11 Sudoeste 29 Oeste 0.8 -- -- 89
2018-04-08 22:00:00 13.4 11 Sudoeste 29 Sur 0 -- -- 80
2018-04-08 21:00:00 13.8 12 Sudoeste 27 Sudoeste 0 -- -- 76
2018-04-08 20:00:00 14.8 12 Sudoeste 28 Sur 0 -- -- 72
2018-04-08 19:00:00 15.9 7 Sudoeste 28 Sudoeste 0 -- -- 64
2018-04-08 18:00:00 17 9 Oeste 27 Oeste 0 -- -- 59
2018-04-08 17:00:00 17.2 10 Oeste 30 Oeste 0 -- -- 56
2018-04-08 16:00:00 16.3 11 Oeste 35 Oeste 0 -- -- 62
2018-04-08 15:00:00 16.4 19 Noroeste 32 Oeste 0 -- -- 57
2018-04-08 14:00:00 15.1 17 Noroeste 30 Oeste 0 -- -- 64
2018-04-08 13:00:00 14.7 14 Noroeste 26 Noroeste 0 -- -- 69
2018-04-08 12:00:00 13.8 15 Noroeste 24 Noroeste 0 -- -- 74
2018-04-08 11:00:00 12 13 Oeste 24 Oeste 0 -- -- 91
2018-04-08 10:00:00 10.2 11 Oeste 20 Oeste 0 -- -- 98
2018-04-08 09:00:00 8.6 4 Sur 11 Oeste 0 -- -- 98
2018-04-08 08:00:00 8.4 5 Oeste 13 Oeste 0.2 -- -- 97
2018-04-08 07:00:00 8.6 4 Oeste 13 Sudoeste 0 -- -- 97
2018-04-08 06:00:00 8.9 3 Sur 8 Sudoeste 0 -- -- 96
2018-04-08 05:00:00 9.2 5 Sudoeste 9 Sudoeste 0 -- -- 95
2018-04-08 04:00:00 9.8 4 Sur 10 Sur 0 -- -- 94
2018-04-08 03:00:00 10.4 6 Sur 12 Sur 0 -- -- 94
2018-04-08 02:00:00 10.4 6 Sur 17 Sur 0.4 -- -- 94
2018-04-08 01:00:00 10.4 0 Calma 8 Noroeste 2 -- -- 94
2018-04-08 00:00:00 10.5 7 Noroeste 15 Noroeste 2.4 -- -- 92
2018-04-07 23:00:00 10.8 6 Sudeste 16 Sur 0.2 -- -- 92
2018-04-07 22:00:00 -- 7 Sur 29 Sudoeste 3.4 -- -- --
2018-04-07 21:00:00 12.5 10 Sur 25 Sudoeste 0 -- -- 80
2018-04-07 20:00:00 14.2 9 Sudoeste 24 Sur 0 -- -- 71
2018-04-07 19:00:00 15.2 9 Sudoeste 26 Sudoeste 0 -- -- 68
2018-04-07 18:00:00 15.2 13 Sudoeste 37 Sur 0 -- -- 75
2018-04-07 17:00:00 14.2 9 Oeste 39 Noroeste 0.2 -- -- 79
2018-04-07 16:00:00 16.2 14 Sudoeste 31 Sudoeste 0 -- -- 62
2018-04-07 15:00:00 15.9 9 Sudoeste 22 Sudoeste 0 -- -- 65
2018-04-07 14:00:00 15.6 10 Sudoeste 24 Sur 0 -- -- 69
2018-04-07 13:00:00 14.8 12 Sudoeste 26 Sur 0 -- -- 70
2018-04-07 12:00:00 13 7 Sudoeste 16 Sudoeste 0 -- -- 77
2018-04-07 11:00:00 11.1 3 Sudoeste 10 Sudoeste 0 -- -- 95
2018-04-07 10:00:00 10.1 6 Sur 11 Sudoeste 0 -- -- 95
2018-04-07 09:00:00 9.8 8 Sur 12 Sudoeste 0 -- -- 95
2018-04-07 08:00:00 9.9 7 Sudeste 17 Este 0.4 -- -- 95
2018-04-07 07:00:00 10.2 4 Sur 7 Sudeste 0.8 -- -- 95
2018-04-07 06:00:00 10.1 3 Oeste 18 Oeste 0.4 -- -- 94
2018-04-07 05:00:00 10.1 14 Noroeste 29 Noroeste 0.4 -- -- 94
2018-04-07 04:00:00 11.4 2 Noroeste 15 Noroeste 0.4 -- -- 97
2018-04-07 03:00:00 11.7 9 Noroeste 21 Noroeste 1.2 -- -- 97
2018-04-07 02:00:00 11.6 9 Noroeste 23 Norte 3 -- -- 96
2018-04-07 01:00:00 12.2 13 Noroeste 26 Norte 2.2 -- -- 94
2018-04-07 00:00:00 14.4 11 Sur 24 Sur 0 -- -- 84
2018-04-06 23:00:00 14.3 14 Sur 22 Sur 0 -- -- 82
2018-04-06 22:00:00 13.9 10 Sur 18 Sur 0 -- -- 82
2018-04-06 21:00:00 15 7 Sur 21 Sudoeste 0 -- -- 73
2018-04-06 20:00:00 16.4 8 Sudoeste 26 Sudoeste 0 -- -- 65
2018-04-06 19:00:00 17.2 13 Sudoeste 31 Sudoeste 0 -- -- 66
2018-04-06 18:00:00 19.3 9 Sudoeste 36 Sudoeste 0 -- -- 53
2018-04-06 17:00:00 20.2 21 Sudoeste 49 Sudoeste 0 -- -- 61
2018-04-06 16:00:00 21 33 Sur 48 Sur 0 -- -- 55
2018-04-06 15:00:00 22 22 Sur 37 Sur 0 -- -- 55
2018-04-06 14:00:00 21.4 14 Sur 24 Sur 0 -- -- 55
2018-04-06 13:00:00 20 8 Sur 18 Sur 0 -- -- 52
2018-04-06 12:00:00 17.9 3 Nordeste 8 Norte 0 -- -- 51
2018-04-06 11:00:00 15.6 4 Nordeste 8 Nordeste 0 -- -- 62
2018-04-06 10:00:00 14.3 0 Calma 5 Este 0 -- -- 66
2018-04-06 09:00:00 12.7 4 Este 9 Este 0 -- -- 76
2018-04-06 08:00:00 11.6 6 Este 10 Este 0 -- -- 78
2018-04-06 07:00:00 11.7 4 Este 10 Este 0 -- -- 78
2018-04-06 06:00:00 11.7 8 Este 11 Nordeste 0 -- -- 76
2018-04-06 05:00:00 11.3 5 Nordeste 8 Nordeste 0 -- -- 75
2018-04-06 04:00:00 12.4 6 Este 10 Este 0 -- -- 67
2018-04-06 03:00:00 12.5 5 Este 9 Este 0 -- -- 68
2018-04-06 02:00:00 13.3 5 Este 9 Sudeste 0 -- -- 63
2018-04-06 01:00:00 15 3 Nordeste 21 Sudeste 0 -- -- 54
2018-04-06 00:00:00 17.2 13 Sur 21 Sur 0 -- -- 39
2018-04-05 23:00:00 17.9 14 Sudeste 32 Sudeste 0 -- -- 39
2018-04-05 22:00:00 18.2 19 Sudeste 31 Sudeste 0 -- -- 42
2018-04-05 21:00:00 18.9 8 Sur 13 Sudeste 0 -- -- 50
2018-04-05 20:00:00 21 9 Sur 16 Sur 0 -- -- 46
2018-04-05 19:00:00 22.9 13 Sur 21 Sur 0 -- -- 42
2018-04-05 18:00:00 24.9 12 Sur 20 Sur 0 -- -- 37
2018-04-05 17:00:00 25.3 4 Sudeste 18 Sudoeste 0 -- -- 36
2018-04-05 16:00:00 25.1 4 Sur 12 Nordeste 0 -- -- 36
2018-04-05 15:00:00 23.6 3 Norte 14 Sudeste 0 -- -- 38
2018-04-05 14:00:00 21.5 8 Norte 18 Norte 0 -- -- 47
2018-04-05 13:00:00 20 10 Norte 18 Norte 0 -- -- 48
2018-04-05 12:00:00 18.1 3 Nordeste 10 Nordeste 0 -- -- 62
2018-04-05 11:00:00 15.5 5 Nordeste 10 Nordeste 0 -- -- 74
2018-04-05 10:00:00 12.4 3 Este 9 Nordeste 0 -- -- 85
2018-04-05 09:00:00 9.2 3 Este 12 Este 0 -- -- 91
2018-04-05 08:00:00 9.6 6 Nordeste 18 Nordeste 0 -- -- 89
2018-04-05 07:00:00 9.7 7 Este 14 Este 0 -- -- 91
2018-04-05 06:00:00 9.7 4 Este 11 Este 0 -- -- 89
2018-04-05 05:00:00 10.2 4 Este 12 Este 0 -- -- 86
2018-04-05 04:00:00 11.2 7 Este 18 Sudeste 0 -- -- 84
2018-04-05 03:00:00 11.4 10 Sudeste 17 Sudeste 0 -- -- 88
2018-04-05 02:00:00 11.1 5 Este 12 Sudeste 0 -- -- 89
2018-04-05 01:00:00 11.7 9 Sudeste 11 Sudeste 0 -- -- 90
2018-04-05 00:00:00 12.1 4 Sur 7 Sur 0 -- -- 89
2018-04-04 23:00:00 12.8 3 Sur 7 Sudoeste 0 -- -- 85
2018-04-04 22:00:00 13.9 3 Sudoeste 9 Sudoeste 0 -- -- 79
2018-04-04 21:00:00 15.3 2 Sudoeste 21 Oeste 0 -- -- 73
2018-04-04 20:00:00 17 12 Oeste 23 Oeste 0 -- -- 61
2018-04-04 19:00:00 18.7 14 Oeste 24 Oeste 0 -- -- 54
2018-04-04 18:00:00 19.5 12 Oeste 26 Oeste 0 -- -- 47
2018-04-04 17:00:00 19.6 11 Oeste 28 Noroeste 0 -- -- 45
2018-04-04 16:00:00 20 10 Oeste 25 Oeste 0 -- -- 47
2018-04-04 15:00:00 19.3 11 Oeste 28 Oeste 0 -- -- 50
2018-04-04 14:00:00 18.7 10 Oeste 21 Oeste 0 -- -- 51
2018-04-04 13:00:00 16.4 10 Noroeste 22 Noroeste 0 -- -- 63
2018-04-04 12:00:00 16.7 12 Noroeste 22 Noroeste 0 -- -- 64
2018-04-04 11:00:00 15.1 10 Noroeste 19 Oeste 0 -- -- 80
2018-04-04 10:00:00 13.7 4 Sudoeste 12 Sur 0 -- -- 89
2018-04-04 09:00:00 11.7 7 Sur 9 Sur 0 -- -- 95
2018-04-04 08:00:00 11.4 5 Sur 8 Sur 0 -- -- 96
2018-04-04 07:00:00 11.2 5 Sudoeste 9 Sudoeste 0 -- -- 95
2018-04-04 06:00:00 12.1 4 Sudoeste 13 Oeste 0 -- -- 94
2018-04-04 05:00:00 12.2 4 Sudoeste 13 Sudoeste 0 -- -- 94
2018-04-04 04:00:00 12.4 8 Sur 17 Sudoeste 0 -- -- 92
2018-04-04 03:00:00 12.3 8 Sur 13 Sur 0 -- -- 92
2018-04-04 02:00:00 12.5 6 Sudoeste 14 Sudoeste 0 -- -- 92
2018-04-04 01:00:00 12.9 8 Sur 18 Sudoeste 0 -- -- 92
2018-04-04 00:00:00 13.3 9 Sur 23 Sudoeste 0 -- -- 91
2018-04-03 23:00:00 13.7 10 Sudoeste 19 Sudoeste 0 -- -- 90
2018-04-03 22:00:00 14.1 8 Sur 18 Sudoeste 0 -- -- 85
2018-04-03 21:00:00 15 4 Sudoeste 19 Oeste 0 -- -- 76
2018-04-03 20:00:00 16.6 4 Oeste 22 Oeste 0 -- -- 66
2018-04-03 19:00:00 18.8 7 Oeste 26 Noroeste 0 -- -- 57
2018-04-03 18:00:00 18.3 10 Oeste 26 Noroeste 0 -- -- 62
2018-04-03 17:00:00 19.3 11 Oeste 31 Oeste 0 -- -- 63
2018-04-03 16:00:00 19.6 10 Oeste 31 Noroeste 0 -- -- 61
2018-04-03 15:00:00 19 11 Oeste 27 Oeste 0 -- -- 64
2018-04-03 14:00:00 19.2 15 Oeste 27 Noroeste 0 -- -- 56
2018-04-03 13:00:00 19.1 9 Oeste 27 Sudoeste 0 -- -- 72
2018-04-03 12:00:00 18 13 Sur 22 Sudoeste 0 -- -- 78
2018-04-03 11:00:00 15.6 9 Sur 17 Sur 0 -- -- 93
2018-04-03 10:00:00 14.4 5 Sur 11 Sudeste 0 -- -- 97
2018-04-03 09:00:00 13.7 6 Sur 9 Sur 0 -- -- 97
2018-04-03 08:00:00 13.3 5 Sur 9 Sur 0 -- -- 97
2018-04-03 07:00:00 13.3 5 Sur 8 Sur 0 -- -- 96
2018-04-03 06:00:00 13.4 3 Sudoeste 10 Sudoeste 0 -- -- 96
2018-04-03 05:00:00 13.6 3 Sudoeste 14 Sudoeste 0 -- -- 96
2018-04-03 04:00:00 14 0 Calma 17 Sur 0 -- -- 95
2018-04-03 03:00:00 14.4 9 Sur 16 Sur 0 -- -- 95
2018-04-03 02:00:00 14.4 9 Sur 21 Sur 0 -- -- 94
2018-04-03 01:00:00 14.4 12 Sur 21 Sur 0 -- -- 93
2018-04-03 00:00:00 14.5 14 Sur 21 Sur 0 -- -- 89
2018-04-02 23:00:00 14.4 15 Sur 20 Sur 0 -- -- 88
2018-04-02 22:00:00 14.6 12 Sur 23 Sudoeste 0 -- -- 84
2018-04-02 21:00:00 15.6 11 Sudoeste 23 Sudoeste 0 -- -- 79
2018-04-02 20:00:00 17.5 9 Sudoeste 22 Sudoeste 0 -- -- 67
2018-04-02 19:00:00 18.9 6 Oeste 25 Sur 0 -- -- 62
2018-04-02 18:00:00 19.7 14 Sudoeste 30 Sudoeste 0 -- -- 56
2018-04-02 17:00:00 19.1 17 Sudoeste 32 Sur 0 -- -- 60
2018-04-02 16:00:00 19.7 14 Sudoeste 35 Sur 0 -- -- 59
2018-04-02 15:00:00 19.7 17 Sudoeste 36 Sur 0 -- -- 57
2018-04-02 14:00:00 19.6 18 Sur 33 Sur 0 -- -- 58
2018-04-02 13:00:00 18.9 14 Sudoeste 34 Sudoeste 0 -- -- 58
2018-04-02 12:00:00 17.7 23 Sur 33 Sur 0 -- -- 57
2018-04-02 11:00:00 15.5 11 Sur 22 Sudoeste 0 -- -- 62
2018-04-02 10:00:00 12 4 Sur 9 Sudeste 0 -- -- 70
2018-04-02 09:00:00 8.2 4 Este 6 Este 0 -- -- 82
2018-04-02 08:00:00 9.1 2 Norte 12 Sudeste 0 -- -- 74
2018-04-02 07:00:00 11 5 Sudeste 12 Sudeste 0 -- -- 65
2018-04-02 06:00:00 12.9 10 Sudeste 23 Sudeste 0 -- -- 56
2018-04-02 05:00:00 14.2 17 Sudeste 27 Sudeste 0 -- -- 50
2018-04-02 04:00:00 14.3 17 Sudeste 34 Sudeste 0 -- -- 50
2018-04-02 03:00:00 14.8 23 Sudeste 37 Sudeste 0 -- -- 45
2018-04-02 02:00:00 15.1 21 Sudeste 30 Sudeste 0 -- -- 39
2018-04-02 01:00:00 15.1 15 Sudeste 28 Sudeste 0 -- -- 38
2018-04-02 00:00:00 15.5 15 Sur 30 Sudeste 0 -- -- 38
2018-04-01 23:00:00 15.8 21 Sudeste 32 Sudeste 0 -- -- 38
2018-04-01 22:00:00 15.8 21 Sudeste 32 Sudeste 0 -- -- 39
2018-04-01 21:00:00 16.8 18 Sudeste 26 Sudeste 0 -- -- 39
2018-04-01 20:00:00 18.6 12 Sudeste 27 Sudeste 0 -- -- 37
2018-04-01 19:00:00 20.1 15 Sudeste 25 Sudeste 0 -- -- 37
2018-04-01 18:00:00 20.9 15 Sur 26 Sur 0 -- -- 43
2018-04-01 17:00:00 22.3 13 Sur 22 Sur 0 -- -- 41
2018-04-01 16:00:00 22.5 6 Sudeste 15 Sur 0 -- -- 39
2018-04-01 15:00:00 21.3 5 Este 15 Este 0 -- -- 42
2018-04-01 14:00:00 20.1 5 Nordeste 16 Norte 0 -- -- 46
2018-04-01 13:00:00 17.6 10 Norte 18 Norte 0 -- -- 57
2018-04-01 12:00:00 15.8 7 Noroeste 13 Noroeste 0 -- -- 65
2018-04-01 11:00:00 13.1 2 Norte 5 Norte 0 -- -- 74
2018-04-01 10:00:00 9.8 2 Norte 7 Este 0 -- -- 82
2018-04-01 09:00:00 8 5 Este 10 Este 0 -- -- 89
2018-04-01 08:00:00 7.7 3 Este 17 Este 0 -- -- 87
2018-04-01 07:00:00 8.2 5 Este 14 Nordeste 0 -- -- 87
2018-04-01 06:00:00 7.8 5 Este 10 Este 0 -- -- 90
2018-04-01 05:00:00 8.1 3 Este 9 Este 0 -- -- 89
2018-04-01 04:00:00 8.8 5 Este 10 Este 0 -- -- 89
2018-04-01 03:00:00 8.7 6 Este 10 Este 0 -- -- 92
2018-04-01 02:00:00 8.6 5 Sudeste 7 Sudeste 0 -- -- 92
2018-04-01 01:00:00 9.1 2 Este 6 Este 0 -- -- 91
2018-04-01 00:00:00 10 0 Calma 5 Oeste 0 -- -- 88
2018-03-31 23:00:00 11.2 3 Oeste 7 Oeste 0 -- -- 81
2018-03-31 22:00:00 12.5 4 Oeste 13 Oeste 0 -- -- 74
2018-03-31 21:00:00 14.2 5 Oeste 11 Oeste 0 -- -- 68
2018-03-31 20:00:00 16.4 3 Oeste 10 Oeste 0 -- -- 54
2018-03-31 19:00:00 16.8 4 Sudoeste 15 Noroeste 0 -- -- 51
2018-03-31 18:00:00 17.3 5 Sudoeste 21 Oeste 0 -- -- 49
2018-03-31 17:00:00 17.5 8 Noroeste 21 Noroeste 0 -- -- 45
2018-03-31 16:00:00 16.2 9 Noroeste 21 Noroeste 0 -- -- 51
2018-03-31 15:00:00 16 9 Noroeste 23 Noroeste 0 -- -- 50
2018-03-31 14:00:00 14.7 8 Noroeste 21 Noroeste 0 -- -- 58
2018-03-31 13:00:00 14.1 8 Noroeste 21 Noroeste 0 -- -- 58
2018-03-31 12:00:00 13.2 10 Noroeste 19 Noroeste 0 -- -- 64
2018-03-31 11:00:00 11.7 9 Noroeste 17 Noroeste 0 -- -- 78
2018-03-31 10:00:00 9.9 8 Noroeste 14 Noroeste 0 -- -- 93
2018-03-31 09:00:00 7.3 0 Calma 4 Noroeste 0 -- -- 95
2018-03-31 08:00:00 8 0 Calma 10 Oeste 0 -- -- 92
2018-03-31 07:00:00 9 8 Oeste 18 Noroeste 0 -- -- 91
2018-03-31 06:00:00 9.2 5 Oeste 15 Oeste 0 -- -- 90
2018-03-31 05:00:00 9.7 7 Oeste 16 Noroeste 0 -- -- 91
2018-03-31 04:00:00 10.1 8 Oeste 16 Oeste 0 -- -- 93
2018-03-31 03:00:00 10.6 6 Oeste 18 Oeste 0 -- -- 95
2018-03-31 02:00:00 11 4 Oeste 24 Oeste 0.4 -- -- 92
2018-03-31 01:00:00 11.6 4 Sudoeste 19 Oeste 0.4 -- -- 88
2018-03-31 00:00:00 11.5 6 Sudoeste 15 Sudoeste 0 -- -- 85
2018-03-30 23:00:00 11.2 8 Sudoeste 21 Sudoeste 0 -- -- 83
2018-03-30 22:00:00 11.3 8 Sudoeste 18 Sudoeste 0 -- -- 79
2018-03-30 21:00:00 11.9 6 Oeste 24 Sudoeste 0 -- -- 73
2018-03-30 20:00:00 13.2 9 Oeste 39 Oeste 0 -- -- 66
2018-03-30 19:00:00 14.6 9 Oeste 34 Oeste 0 -- -- 61
2018-03-30 18:00:00 15.4 12 Oeste 33 Oeste 0 -- -- 61
2018-03-30 17:00:00 15.3 13 Oeste 41 Oeste 0 -- -- 58
2018-03-30 16:00:00 15.4 10 Oeste 35 Oeste 0 -- -- 62
2018-03-30 15:00:00 14.4 19 Oeste 41 Oeste 0 -- -- 65
2018-03-30 14:00:00 14.9 13 Oeste 40 Oeste 0 -- -- 64
2018-03-30 13:00:00 14.1 18 Oeste 34 Oeste 0 -- -- 66
2018-03-30 12:00:00 12.7 15 Oeste 27 Oeste 0 -- -- 82
2018-03-30 11:00:00 10.9 4 Sudoeste 13 Sur 0.4 -- -- 97
2018-03-30 10:00:00 10 6 Sur 14 Sudoeste 1.2 -- -- 96
2018-03-30 09:00:00 10 6 Sudoeste 13 Oeste 4.2 -- -- 95
2018-03-30 08:00:00 10.2 3 Sudoeste 13 Sur 2.2 -- -- 92
2018-03-30 07:00:00 10 4 Sudeste 15 Sur 0.2 -- -- 89
2018-03-30 06:00:00 9.9 9 Sur 13 Sur 0 -- -- 88
2018-03-30 05:00:00 8.8 5 Sur 8 Sudoeste 0 -- -- 86
2018-03-30 04:00:00 8.6 4 Sur 7 Sudoeste 0 -- -- 84
2018-03-30 03:00:00 9.5 4 Sudoeste -- -- -- -- -- 79
2018-03-30 02:00:00 10.4 5 Oeste 16 Oeste 0 -- -- 75
2018-03-30 01:00:00 11.1 8 Oeste 18 Oeste 0 -- -- 74
2018-03-30 00:00:00 11.4 5 Sudoeste 11 Sudoeste 0 -- -- 82
2018-03-29 23:00:00 10.8 5 Sur 17 Sudoeste 0 -- -- 83
2018-03-29 22:00:00 11.4 7 Sudoeste 17 Sudoeste 0 -- -- 79
2018-03-29 21:00:00 12.4 5 Sudoeste 15 Sudoeste 0 -- -- 74
2018-03-29 20:00:00 14.8 5 Oeste 21 Noroeste 0 -- -- 64
2018-03-29 19:00:00 16.7 7 Oeste 22 Oeste 0 -- -- 57
2018-03-29 18:00:00 17.3 9 Oeste 26 Oeste 0 -- -- 55
2018-03-29 17:00:00 17.3 10 Oeste 27 Oeste 0 -- -- 55
2018-03-29 16:00:00 17.3 12 Oeste 26 Oeste 0 -- -- 49
2018-03-29 15:00:00 16.6 10 Oeste 26 Noroeste 0 -- -- 60
2018-03-29 14:00:00 17.5 8 Oeste 21 Oeste 0 -- -- 61
2018-03-29 13:00:00 16.2 6 Oeste 16 Noroeste 0 -- -- 69
2018-03-29 12:00:00 14.2 6 Noroeste 12 Noroeste 0 -- -- 76
2018-03-29 11:00:00 12.3 3 Oeste 8 Oeste 0 -- -- 88
2018-03-29 10:00:00 10.8 2 Oeste 5 Oeste 0 -- -- 94
2018-03-29 09:00:00 9.7 3 Oeste 6 Oeste 0 -- -- 95
2018-03-29 08:00:00 9.8 3 Sudoeste 9 Sur 0 -- -- 95
2018-03-29 07:00:00 10 3 Sudoeste 8 Sudoeste 0 -- -- 94
2018-03-29 06:00:00 10.1 5 Sur 10 Sur 0 -- -- 93
2018-03-29 05:00:00 10.7 6 Sudoeste 9 Sudoeste 0 -- -- 91
2018-03-29 04:00:00 11.6 4 Sudoeste 12 Oeste 0 -- -- 85
2018-03-29 03:00:00 12.1 4 Sudoeste -- -- -- -- -- 81
2018-03-29 02:00:00 12.8 6 Sur 8 Sur 0 -- -- 75
2018-03-29 01:00:00 13.6 5 Sur 9 Sur 0 -- -- 74
2018-03-29 00:00:00 14.5 7 Sudoeste 9 Sudoeste 0 -- -- 71
2018-03-28 23:00:00 15.2 5 Sur 15 Sudoeste 0 -- -- 72
2018-03-28 22:00:00 15.9 4 Sudoeste 12 Sur 0 -- -- 72
2018-03-28 21:00:00 17.7 6 Sudoeste 14 Sudoeste 0 -- -- 67
2018-03-28 20:00:00 20.8 5 Oeste 23 Oeste 0 -- -- 54
2018-03-28 19:00:00 23 12 Oeste 23 Oeste 0 -- -- 55
2018-03-28 18:00:00 24.3 8 Noroeste 17 Oeste 0 -- -- 39
2018-03-28 17:00:00 23.9 8 Noroeste 15 Noroeste 0 -- -- 44
2018-03-28 16:00:00 23.6 8 Noroeste 20 Noroeste 0 -- -- 48
2018-03-28 15:00:00 22.9 6 Noroeste 14 Norte 0 -- -- 53
2018-03-28 14:00:00 21.7 5 Norte 12 Norte 0 -- -- 60
2018-03-28 13:00:00 19.8 6 Noroeste 14 Noroeste 0 -- -- 67
2018-03-28 12:00:00 17.7 5 Norte 8 Noroeste 0 -- -- 73
2018-03-28 11:00:00 15.5 4 Norte 8 Norte 0 -- -- 77
2018-03-28 10:00:00 13.1 0 Calma 9 Este 0 -- -- 81
2018-03-28 09:00:00 9.5 4 Este 7 Este 0 -- -- 92
2018-03-28 08:00:00 9.8 2 Sudeste 10 Este 0 -- -- 88
2018-03-28 07:00:00 11.1 7 Este 10 Sudeste 0 -- -- 84
2018-03-28 06:00:00 11.4 6 Este 10 Este 0 -- -- 83
2018-03-28 05:00:00 10.7 5 Este 8 Este 0 -- -- 89
2018-03-28 04:00:00 10.8 5 Este 8 Este 0 -- -- 91
2018-03-28 03:00:00 10.6 5 Sudeste 8 Este 0 -- -- 94
2018-03-28 02:00:00 10.9 3 Sur 6 Este 0 -- -- 94
2018-03-28 01:00:00 11.6 3 Sur 4 Sudeste 0 -- -- 92
2018-03-28 00:00:00 13.1 0 Calma 5 Oeste 0 -- -- 87
2018-03-27 23:00:00 15.2 0 Calma 11 Oeste 0 -- -- 77
2018-03-27 22:00:00 15.6 0 Calma 6 Este 0 -- -- 79
2018-03-27 21:00:00 18.5 3 Nordeste 9 Norte 0 -- -- 65
2018-03-27 20:00:00 21.7 6 Norte 15 Nordeste 0 -- -- 52
2018-03-27 19:00:00 22.9 7 Nordeste 16 Nordeste 0 -- -- 45
2018-03-27 18:00:00 23.2 9 Norte 18 Nordeste 0 -- -- 45
2018-03-27 17:00:00 22.7 9 Nordeste 21 Norte 0 -- -- 45
2018-03-27 16:00:00 21.6 10 Norte 20 Norte 0 -- -- 46
2018-03-27 15:00:00 20.6 8 Nordeste 16 Nordeste 0 -- -- 50
2018-03-27 14:00:00 19.3 8 Nordeste 17 Nordeste 0 -- -- 53
2018-03-27 13:00:00 17.4 9 Norte 17 Norte 0 -- -- 63
2018-03-27 12:00:00 16 6 Norte 13 Norte 0 -- -- 67
2018-03-27 11:00:00 14.5 5 Nordeste 12 Este 0 -- -- 71
2018-03-27 10:00:00 10.8 2 Nordeste 5 Norte 0 -- -- 92
2018-03-27 09:00:00 7.7 3 Este 8 Sudeste 0 -- -- 95
2018-03-27 08:00:00 7.8 4 Sur 10 Este 0 -- -- 96
2018-03-27 07:00:00 7.4 2 Sudeste 6 Este 0 -- -- 95
2018-03-27 06:00:00 8.7 3 Sur 5 Sur 0 -- -- 95
2018-03-27 05:00:00 8.8 4 Sur 6 Sur 0 -- -- 91
2018-03-27 04:00:00 10.1 4 Sudeste 13 Sudeste 0 -- -- 88
2018-03-27 03:00:00 11 11 Sur 19 Sudeste 0 -- -- 85
2018-03-27 02:00:00 10.7 6 Sur 16 Sur 0 -- -- 87
2018-03-27 01:00:00 10.7 5 Sur 11 Sudeste 0 -- -- 85
2018-03-27 00:00:00 11.1 7 Sur 9 Sudoeste 0 -- -- 84
2018-03-26 23:00:00 11.7 6 Sur 9 Sur 0 -- -- 80
2018-03-26 22:00:00 12.7 5 Sudoeste 8 Sudoeste 0 -- -- 75
2018-03-26 21:00:00 14.7 4 Sudoeste 12 Oeste 0 -- -- 63
2018-03-26 20:00:00 17.4 2 Sudoeste 13 Oeste 0 -- -- 51
2018-03-26 19:00:00 18.4 5 Oeste -- -- -- -- -- 47
2018-03-26 18:00:00 18.8 8 Noroeste 16 Noroeste 0 -- -- 42
2018-03-26 17:00:00 18.3 9 Norte 18 Noroeste 0 -- -- 51
2018-03-26 16:00:00 17.3 9 Noroeste 19 Noroeste 0 -- -- 57
2018-03-26 15:00:00 16.6 8 Noroeste 15 Noroeste 0 -- -- 56
2018-03-26 14:00:00 15.8 6 Noroeste 13 Noroeste 0 -- -- 61
2018-03-26 13:00:00 14.8 4 Nordeste 12 Nordeste 0 -- -- 61
2018-03-26 12:00:00 13.5 4 Nordeste 10 Nordeste 0 -- -- 68
2018-03-26 11:00:00 10.8 3 Nordeste 7 Nordeste 0 -- -- 78
2018-03-26 10:00:00 7.6 2 Norte 6 Norte 0 -- -- 98
2018-03-26 09:00:00 4.8 0 Calma 2 Noroeste 0 -- -- 97
2018-03-26 08:00:00 4.3 0 Calma 4 Sudoeste 0 -- -- 96
2018-03-26 07:00:00 5.5 3 Sudoeste 5 Sudoeste 0 -- -- 95
2018-03-26 06:00:00 5.8 2 Sudoeste 8 Sudoeste 0 -- -- 93
2018-03-26 05:00:00 6.1 5 Sudoeste 8 Sudoeste 0 -- -- 93
2018-03-26 04:00:00 7.3 2 Sur 9 Oeste 0 -- -- 87
2018-03-26 03:00:00 8.7 4 Sudoeste 9 Sudoeste 0 -- -- 80
2018-03-26 02:00:00 8.4 5 Sudoeste 8 Sudoeste 0 -- -- 83
2018-03-26 01:00:00 7.8 3 Sudoeste 6 Oeste 0 -- -- 90
2018-03-26 00:00:00 8.9 2 Norte 7 Oeste 0 -- -- 84
2018-03-25 23:00:00 9.9 2 Oeste 10 Norte 0 -- -- 81
2018-03-25 22:00:00 11 3 Noroeste 9 Noroeste 0 -- -- 76
2018-03-25 21:00:00 12.3 5 Norte 14 Norte 0 -- -- 78
2018-03-25 20:00:00 15 9 Norte 26 Norte 0 -- -- 65
2018-03-25 19:00:00 16.2 14 Norte 32 Norte 0 -- -- 65
2018-03-25 18:00:00 16 17 Norte 33 Norte 0 -- -- 74
2018-03-25 17:00:00 15.2 13 Norte 24 Norte 0.4 -- -- 90
2018-03-25 16:00:00 13.6 10 Noroeste 34 Oeste 3.8 -- -- 95
2018-03-25 15:00:00 16.2 15 Oeste 29 Noroeste 0 -- -- 78
2018-03-25 14:00:00 15.7 23 Noroeste 36 Noroeste 0 -- -- 77
2018-03-25 13:00:00 15.3 19 Noroeste 40 Noroeste 0 -- -- 80
2018-03-25 12:00:00 15.1 23 Noroeste 45 Noroeste 0 -- -- 84
2018-03-25 11:00:00 13.3 13 Oeste 29 Oeste 0 -- -- 99
2018-03-25 10:00:00 11.4 6 Oeste 31 Sur 2.2 -- -- 100
2018-03-25 09:00:00 9.4 20 Sur 30 Sur 1.4 -- -- 98
2018-03-25 08:00:00 8.8 18 Sur 26 Sur 1 -- -- 97
2018-03-25 07:00:00 8.9 11 Sur 18 Sur 0.8 -- -- 96
2018-03-25 06:00:00 8.9 3 Sur 12 Oeste 0.8 -- -- 94
2018-03-25 05:00:00 8.9 3 Noroeste 30 Noroeste 1 -- -- 88
2018-03-25 03:00:00 10.3 6 Oeste 23 Noroeste 0 -- -- 82
2018-03-25 01:00:00 10.6 11 Oeste 26 Oeste 0 -- -- 78
2018-03-25 00:00:00 10.8 11 Oeste 31 Oeste 0 -- -- 78
2018-03-24 23:00:00 11.2 14 Oeste 30 Oeste 0 -- -- 75
2018-03-24 22:00:00 11.4 21 Noroeste 30 Noroeste 0 -- -- 71
2018-03-24 21:00:00 11.6 18 Noroeste 27 Oeste 0 -- -- 68
2018-03-24 20:00:00 11.9 13 Noroeste 22 Noroeste 0 -- -- 69
2018-03-24 19:00:00 13.8 9 Oeste 30 Oeste 0 -- -- 65
2018-03-24 18:00:00 14.6 13 Oeste 37 Oeste 0 -- -- 57
2018-03-24 17:00:00 14.3 11 Oeste 44 Oeste 0 -- -- 66
2018-03-24 16:00:00 15.1 29 Noroeste 47 Oeste 0 -- -- 54
2018-03-24 15:00:00 15.1 23 Noroeste 46 Oeste 0 -- -- 52
2018-03-24 14:00:00 14.1 27 Noroeste 41 Oeste 0 -- -- 56
2018-03-24 13:00:00 13.2 22 Oeste 41 Noroeste 0 -- -- 62
2018-03-24 12:00:00 12.7 24 Noroeste 40 Oeste 0 -- -- 66
2018-03-24 11:00:00 11.5 24 Noroeste 40 Oeste 0 -- -- 70
2018-03-24 10:00:00 10.2 23 Noroeste 33 Oeste 0 -- -- 81
2018-03-24 09:00:00 8.7 16 Oeste 26 Oeste 0 -- -- 88
2018-03-24 08:00:00 7.7 10 Oeste 21 Oeste 0 -- -- 90
2018-03-24 07:00:00 8.1 15 Oeste 23 Oeste 0 -- -- 89
2018-03-24 06:00:00 9.2 13 Noroeste 24 Noroeste 0 -- -- 89
2018-03-24 05:00:00 10.1 13 Noroeste 32 Noroeste 0 -- -- 92
2018-03-24 04:00:00 11.2 24 Noroeste 47 Oeste 2.4 -- -- 96
2018-03-24 03:00:00 13.3 9 Oeste 29 Sudoeste 1.2 -- -- 96
2018-03-24 02:00:00 13.5 9 Oeste 30 Sudoeste 0 -- -- 94
2018-03-24 01:00:00 13.3 8 Sudoeste 26 Sudoeste 0 -- -- 96
2018-03-24 00:00:00 13.2 6 Sudoeste 25 Sudoeste 0 -- -- 97